Sirena — V7RX6 — position and weather

sailwx.info

Track history (hours):
 
Tides and Currents Weather Stations Pressure Air Temp Water Temp Dewpoint Dewpoint Depression Visibility Wind Speed Wind Dir Waves Ship Positions

Sirena

Last reported at 2018-May-20 23:16 UTC. Time now 2018-May-27 21:21 UTC.
Position N 25°45' W 079°52'.

Length 179 m; draft 5.8 m.

Type: Passenger vessel. MMSI: 310505000.

Date/timePositionNaut miles runAvg speedWind from/ knotsBaromVisibWave heightAir tempDewpointWater temp
2018-May-20 23:16N 25°45' W 079°52'310.2
2018-May-20 22:59N 25°46' W 079°55'611.0
2018-May-20 22:29N 25°47' W 080°01'5 9.9
2018-May-20 22:00N 25°46' W 080°06'4 8.4
2018-May-20 21:30N 25°46' W 080°11'0 0.3
2018-May-20 20:52N 25°46' W 080°11'0 0.0
2018-May-20 20:28N 25°46' W 080°11'0 0.0
2018-May-20 19:19N 25°46' W 080°11'0 0.0
2018-May-20 18:52N 25°46' W 080°11'0 0.0
2018-May-20 18:28N 25°46' W 080°11'0 0.0
2018-May-20 17:58N 25°46' W 080°11'0 0.0
2018-May-20 17:28N 25°46' W 080°11'0 0.0
2018-May-20 16:49N 25°46' W 080°11'0 0.0
2018-May-20 16:28N 25°46' W 080°11'0 0.0
2018-May-20 15:52N 25°46' W 080°11'0 0.0
2018-May-20 15:19N 25°46' W 080°11'0 0.0
2018-May-20 14:58N 25°46' W 080°11'0 0.0
2018-May-20 14:22N 25°46' W 080°11'0 0.0
2018-May-20 13:52N 25°46' W 080°11'0 0.0
2018-May-20 13:28N 25°46' W 080°11'0 0.0
2018-May-20 12:58N 25°46' W 080°11'0 0.0
2018-May-20 12:28N 25°46' W 080°11'0 0.6
2018-May-20 12:00N 25°46' W 080°10'4 7.1
2018-May-20 11:30N 25°45' W 080°07'510.8
2018-May-20 11:00N 25°48' W 080°02'1 2.8
2018-May-20 10:29N 25°50' W 080°01'4 8.6
2018-May-20 10:00N 25°46' W 079°60'1 2.8
2018-May-20 09:30N 25°45' W 080°01'1 2.7
2018-May-20 09:01N 25°46' W 080°00'611.5
2018-May-20 08:30N 25°46' W 079°54'17 9.2
2018-May-20 06:36N 25°49' W 079°35'110.1
2018-May-20 06:27N 25°51' W 079°34'410.0
2018-May-20 06:00N 25°55' W 079°32'510.0
2018-May-20 05:30N 25°60' W 079°31'510.1
2018-May-20 05:00N 26°05' W 079°30'510.1
2018-May-20 04:30N 26°10' W 079°28'510.3
2018-May-20 04:00N 26°15' W 079°27'510.7
2018-May-20 03:30N 26°20' W 079°26'3 0.1
2018-May-19 04:40N 26°18' W 079°27'212.9
2018-May-19 04:30N 26°16' W 079°27'  
2018-May-11 23:16N 25°29' W 080°00'516.4
2018-May-11 22:59N 25°34' W 080°01'816.1
2018-May-11 22:30N 25°41' W 080°02'511.0
2018-May-11 22:00N 25°45' W 080°07'3 6.3
2018-May-11 21:30N 25°46' W 080°10'1 1.5
2018-May-11 21:00N 25°46' W 080°11'0 0.0
2018-May-11 20:30N 25°46' W 080°11'0 0.0
2018-May-11 20:00N 25°46' W 080°11'0 0.0
2018-May-11 19:30N 25°46' W 080°11'0 0.0
2018-May-11 19:01N 25°46' W 080°11'0 0.0
2018-May-11 18:30N 25°46' W 080°11'0 0.0
2018-May-11 18:00N 25°46' W 080°11'0 0.0
2018-May-11 17:30N 25°46' W 080°11'0 0.0
2018-May-11 17:00N 25°46' W 080°11'0 0.0
2018-May-11 16:28N 25°46' W 080°11'0 0.0
2018-May-11 16:00N 25°46' W 080°11'0 0.0
2018-May-11 15:21N 25°46' W 080°11'0 0.0
2018-May-11 14:54N 25°46' W 080°11'0 0.0
2018-May-11 14:31N 25°46' W 080°11'0 0.0
2018-May-11 14:00N 25°46' W 080°11'0 0.0
2018-May-11 13:24N 25°46' W 080°11'0 0.0
2018-May-11 13:01N 25°46' W 080°11'0 0.0
2018-May-11 12:27N 25°46' W 080°11'0 0.0
2018-May-11 12:01N 25°46' W 080°11'0 0.0
2018-May-11 11:27N 25°46' W 080°11'0 0.0
2018-May-11 10:57N 25°46' W 080°11'1 1.8
2018-May-11 10:30N 25°46' W 080°10'4 8.6
2018-May-11 10:00N 25°46' W 080°05'5 9.3
2018-May-11 09:30N 25°45' W 079°60'5 9.1
2018-May-11 09:00N 25°41' W 079°60'714.5
2018-May-11 08:30N 25°35' W 079°55'  
Track history (hours):
 
Tides and Currents Weather Stations Pressure Air Temp Water Temp Dewpoint Dewpoint Depression Visibility Wind Speed Wind Dir Waves Ship Positions

Sirena

Last reported at 2018-May-20 23:16 UTC. Time now 2018-May-27 21:21 UTC.
Position N 25°45' W 079°52'.

Length 179 m; draft 5.8 m.

Type: Passenger vessel. MMSI: 310505000.

Date/timePositionNaut miles runAvg speedWind from/ knotsBaromVisibWave heightAir tempDewpointWater temp
2018-May-20 23:16N 25°45' W 079°52'310.2
2018-May-20 22:59N 25°46' W 079°55'611.0
2018-May-20 22:29N 25°47' W 080°01'5 9.9
2018-May-20 22:00N 25°46' W 080°06'4 8.4
2018-May-20 21:30N 25°46' W 080°11'0 0.3
2018-May-20 20:52N 25°46' W 080°11'0 0.0
2018-May-20 20:28N 25°46' W 080°11'0 0.0
2018-May-20 19:19N 25°46' W 080°11'0 0.0
2018-May-20 18:52N 25°46' W 080°11'0 0.0
2018-May-20 18:28N 25°46' W 080°11'0 0.0
2018-May-20 17:58N 25°46' W 080°11'0 0.0
2018-May-20 17:28N 25°46' W 080°11'0 0.0
2018-May-20 16:49N 25°46' W 080°11'0 0.0
2018-May-20 16:28N 25°46' W 080°11'0 0.0
2018-May-20 15:52N 25°46' W 080°11'0 0.0
2018-May-20 15:19N 25°46' W 080°11'0 0.0
2018-May-20 14:58N 25°46' W 080°11'0 0.0
2018-May-20 14:22N 25°46' W 080°11'0 0.0
2018-May-20 13:52N 25°46' W 080°11'0 0.0
2018-May-20 13:28N 25°46' W 080°11'0 0.0
2018-May-20 12:58N 25°46' W 080°11'0 0.0
2018-May-20 12:28N 25°46' W 080°11'0 0.6
2018-May-20 12:00N 25°46' W 080°10'4 7.1
2018-May-20 11:30N 25°45' W 080°07'510.8
2018-May-20 11:00N 25°48' W 080°02'1 2.8
2018-May-20 10:29N 25°50' W 080°01'4 8.6
2018-May-20 10:00N 25°46' W 079°60'1 2.8
2018-May-20 09:30N 25°45' W 080°01'1 2.7
2018-May-20 09:01N 25°46' W 080°00'611.5
2018-May-20 08:30N 25°46' W 079°54'17 9.2
2018-May-20 06:36N 25°49' W 079°35'110.1
2018-May-20 06:27N 25°51' W 079°34'410.0
2018-May-20 06:00N 25°55' W 079°32'510.0
2018-May-20 05:30N 25°60' W 079°31'510.1
2018-May-20 05:00N 26°05' W 079°30'510.1
2018-May-20 04:30N 26°10' W 079°28'510.3
2018-May-20 04:00N 26°15' W 079°27'510.7
2018-May-20 03:30N 26°20' W 079°26'3 0.1
2018-May-19 04:40N 26°18' W 079°27'212.9
2018-May-19 04:30N 26°16' W 079°27'  
2018-May-11 23:16N 25°29' W 080°00'516.4
2018-May-11 22:59N 25°34' W 080°01'816.1
2018-May-11 22:30N 25°41' W 080°02'511.0
2018-May-11 22:00N 25°45' W 080°07'3 6.3
2018-May-11 21:30N 25°46' W 080°10'1 1.5
2018-May-11 21:00N 25°46' W 080°11'0 0.0
2018-May-11 20:30N 25°46' W 080°11'0 0.0
2018-May-11 20:00N 25°46' W 080°11'0 0.0
2018-May-11 19:30N 25°46' W 080°11'0 0.0
2018-May-11 19:01N 25°46' W 080°11'0 0.0
2018-May-11 18:30N 25°46' W 080°11'0 0.0
2018-May-11 18:00N 25°46' W 080°11'0 0.0
2018-May-11 17:30N 25°46' W 080°11'0 0.0
2018-May-11 17:00N 25°46' W 080°11'0 0.0
2018-May-11 16:28N 25°46' W 080°11'0 0.0
2018-May-11 16:00N 25°46' W 080°11'0 0.0
2018-May-11 15:21N 25°46' W 080°11'0 0.0
2018-May-11 14:54N 25°46' W 080°11'0 0.0
2018-May-11 14:31N 25°46' W 080°11'0 0.0
2018-May-11 14:00N 25°46' W 080°11'0 0.0
2018-May-11 13:24N 25°46' W 080°11'0 0.0
2018-May-11 13:01N 25°46' W 080°11'0 0.0
2018-May-11 12:27N 25°46' W 080°11'0 0.0
2018-May-11 12:01N 25°46' W 080°11'0 0.0
2018-May-11 11:27N 25°46' W 080°11'0 0.0
2018-May-11 10:57N 25°46' W 080°11'1 1.8
2018-May-11 10:30N 25°46' W 080°10'4 8.6
2018-May-11 10:00N 25°46' W 080°05'5 9.3
2018-May-11 09:30N 25°45' W 079°60'5 9.1
2018-May-11 09:00N 25°41' W 079°60'714.5
2018-May-11 08:30N 25°35' W 079°55'  

Dump ship's entire track history